Time;durP1;ratioP1;P1;durP2;ratioP2;P2;SDS_P1;SDS_P2;PMS_P1;PMS_P2;Temp;Humidity;BMP_temperature;BMP_pressure;BME280_temperature;BME280_humidity;BME280_pressure;Samples;Min_cycle;Max_cycle;Signal;HPM_P1;HPM_P2
2022/08/05 00:02:13;;;;;;;30.27;28.38;;;21.00;67.80;;;;;;5050228;28;20499;-79
2022/08/05 00:04:39;;;;;;;34.90;32.58;;;21.00;67.80;;;;;;5051273;28;20029;-79
2022/08/05 00:07:05;;;;;;;32.80;30.70;;;20.90;67.50;;;;;;5034267;28;20049;-79
2022/08/05 00:09:31;;;;;;;33.60;31.55;;;20.80;68.00;;;;;;5051092;28;20028;-78
2022/08/05 00:11:57;;;;;;;33.30;31.00;;;20.90;67.80;;;;;;5051297;28;20035;-79
2022/08/05 00:14:23;;;;;;;31.50;29.40;;;20.90;67.60;;;;;;5050959;28;20029;-79
2022/08/05 00:16:49;;;;;;;33.10;30.95;;;20.90;67.80;;;;;;5050189;28;20562;-79
2022/08/05 00:19:15;;;;;;;32.65;30.50;;;20.90;67.80;;;;;;5034247;28;20045;-79
2022/08/05 00:21:41;;;;;;;33.80;31.90;;;20.90;67.60;;;;;;5034039;28;20419;-79
2022/08/05 00:24:08;;;;;;;34.40;32.17;;;20.90;67.40;;;;;;5050897;28;20037;-79
2022/08/05 00:26:34;;;;;;;31.73;29.92;;;20.90;67.20;;;;;;5050791;28;20387;-79
2022/08/05 00:29:00;;;;;;;33.42;31.45;;;21.00;67.20;;;;;;5050760;28;20025;-79
2022/08/05 00:31:26;;;;;;;32.35;30.48;;;20.90;67.20;;;;;;5050071;28;20033;-79
2022/08/05 00:33:52;;;;;;;33.75;31.55;;;20.90;67.60;;;;;;5033831;28;20044;-79
2022/08/05 00:36:18;;;;;;;31.88;29.85;;;20.80;67.50;;;;;;5030378;28;20041;-79
2022/08/05 00:38:44;;;;;;;32.50;30.58;;;20.80;67.20;;;;;;5035526;28;20028;-79
2022/08/05 00:41:10;;;;;;;33.58;31.48;;;20.90;67.20;;;;;;5050667;28;20040;-79
2022/08/05 00:43:36;;;;;;;35.20;32.97;;;20.80;66.50;;;;;;5050409;28;20376;-79
2022/08/05 00:46:02;;;;;;;31.67;29.92;;;20.80;66.60;;;;;;5029276;28;20061;-79
2022/08/05 00:48:29;;;;;;;30.38;28.67;;;20.70;67.20;;;;;;5029840;28;20057;-79
2022/08/05 00:50:55;;;;;;;32.67;30.63;;;20.80;67.20;;;;;;5046835;28;20460;-79
2022/08/05 00:53:22;;;;;;;40.28;37.95;;;20.80;67.10;;;;;;5030199;28;20488;-78
2022/08/05 00:55:48;;;;;;;34.17;32.20;;;20.70;67.20;;;;;;5047093;28;20032;-79
2022/08/05 00:58:17;;;;;;;37.10;35.00;;;20.60;67.50;;;;;;5029952;28;20038;-79
2022/08/05 01:00:44;;;;;;;34.78;32.95;;;20.60;67.60;;;;;;5045647;28;20025;-78
2022/08/05 01:03:10;;;;;;;34.00;32.13;;;20.50;67.50;;;;;;5046787;28;20025;-78
2022/08/05 01:05:36;;;;;;;34.08;32.28;;;20.50;67.30;;;;;;5046574;28;20033;-78
2022/08/05 01:08:03;;;;;;;34.80;32.90;;;20.50;67.40;;;;;;5031294;28;20041;-79
2022/08/05 01:11:18;;;;;;;33.10;31.30;;;20.50;67.30;;;;;;5046630;28;20033;-79
2022/08/05 01:13:46;;;;;;;35.38;33.38;;;20.40;67.10;;;;;;5011896;28;20037;-79
2022/08/05 01:16:19;;;;;;;35.65;33.65;;;20.30;67.30;;;;;;5011074;28;20045;-79
2022/08/05 01:18:46;;;;;;;40.95;38.60;;;20.30;67.10;;;;;;5027708;28;20516;-79
2022/08/05 01:21:57;;;;;;;36.80;34.70;;;20.30;67.40;;;;;;5011993;28;20037;-78
2022/08/05 01:24:35;;;;;;;38.10;36.10;;;20.30;67.10;;;;;;4983784;28;20049;-79
2022/08/05 01:27:37;;;;;;;42.33;40.03;;;20.40;66.90;;;;;;4988625;28;20285;-79
2022/08/05 01:30:05;;;;;;;33.88;31.92;;;20.30;66.90;;;;;;4988542;28;20058;-79
2022/08/05 01:32:32;;;;;;;35.00;32.45;;;20.30;66.90;;;;;;4988545;28;20049;-79
2022/08/05 01:35:00;;;;;;;32.78;30.88;;;20.20;67.00;;;;;;4997030;28;20573;-79
2022/08/05 01:37:36;;;;;;;35.58;33.70;;;20.30;66.80;;;;;;4985756;28;20441;-78
2022/08/05 01:40:03;;;;;;;37.65;35.42;;;20.20;66.60;;;;;;4969777;28;20031;-78
2022/08/05 01:42:29;;;;;;;33.67;31.67;;;20.20;67.00;;;;;;4969555;28;20046;-78
2022/08/05 01:44:55;;;;;;;32.80;30.85;;;20.20;66.80;;;;;;4957798;28;20045;-78
2022/08/05 01:47:21;;;;;;;34.33;32.35;;;20.20;66.50;;;;;;4991520;28;20049;-78
2022/08/05 01:49:49;;;;;;;33.22;31.27;;;20.20;66.80;;;;;;4975975;28;20377;-78
2022/08/05 01:52:15;;;;;;;38.08;35.40;;;20.10;67.10;;;;;;4976568;28;20037;-79
2022/08/05 01:54:50;;;;;;;34.70;32.90;;;20.20;66.80;;;;;;5005958;28;20048;-78
2022/08/05 01:57:19;;;;;;;35.05;33.10;;;20.20;66.50;;;;;;5049595;28;20358;-78
2022/08/05 01:59:45;;;;;;;31.02;29.33;;;20.30;66.60;;;;;;5048976;28;20029;-78
2022/08/05 02:02:11;;;;;;;28.17;26.27;;;20.40;66.20;;;;;;5048670;28;20056;-79
2022/08/05 02:04:37;;;;;;;28.55;26.95;;;20.40;66.10;;;;;;5032456;28;20045;-78
2022/08/05 02:07:04;;;;;;;29.60;27.88;;;20.40;66.20;;;;;;5049212;28;20025;-79
2022/08/05 02:09:30;;;;;;;29.38;27.42;;;20.30;65.70;;;;;;5032499;28;20059;-79
2022/08/05 02:12:11;;;;;;;27.83;26.23;;;20.30;65.90;;;;;;5049000;28;20028;-79
2022/08/05 02:15:02;;;;;;;30.13;28.48;;;20.20;66.30;;;;;;5049377;28;20391;-78
2022/08/05 02:17:33;;;;;;;32.65;30.63;;;20.20;66.30;;;;;;5048020;28;20033;-78
2022/08/05 02:20:01;;;;;;;28.08;26.42;;;20.10;66.40;;;;;;5048989;28;20032;-78
2022/08/05 02:22:33;;;;;;;29.02;27.42;;;20.10;66.20;;;;;;5032342;28;20476;-78
2022/08/05 02:25:16;;;;;;;31.55;29.85;;;20.10;66.20;;;;;;5049031;28;20040;-78
2022/08/05 02:27:42;;;;;;;37.63;35.03;;;20.10;66.30;;;;;;5048666;28;20040;-79
2022/08/05 02:30:09;;;;;;;35.03;32.78;;;20.10;66.50;;;;;;5031655;28;20037;-78
2022/08/05 02:32:35;;;;;;;35.97;33.72;;;20.20;66.50;;;;;;5049041;28;20029;-78
2022/08/05 02:35:04;;;;;;;36.08;34.03;;;20.20;66.60;;;;;;5048538;28;20033;-78
2022/08/05 02:37:30;;;;;;;33.78;31.85;;;20.20;66.40;;;;;;5048949;28;20060;-79
2022/08/05 02:39:56;;;;;;;33.92;32.13;;;20.10;66.30;;;;;;5032028;28;20037;-79
2022/08/05 02:42:22;;;;;;;38.42;36.13;;;20.10;66.20;;;;;;5048590;28;20396;-78
2022/08/05 02:44:48;;;;;;;39.08;36.95;;;20.00;66.50;;;;;;5019089;28;20045;-79
2022/08/05 02:47:14;;;;;;;34.10;32.22;;;20.00;66.20;;;;;;5031257;28;20048;-78
2022/08/05 02:49:41;;;;;;;37.00;34.85;;;20.00;66.00;;;;;;5048782;28;20060;-78
2022/08/05 02:52:09;;;;;;;37.72;35.58;;;20.00;66.30;;;;;;5048732;28;20021;-78
2022/08/05 02:54:36;;;;;;;37.30;34.90;;;19.80;66.50;;;;;;5048838;28;20488;-78
2022/08/05 02:57:04;;;;;;;35.22;33.22;;;19.80;66.60;;;;;;5048535;28;20033;-78
2022/08/05 02:59:30;;;;;;;33.67;31.55;;;19.80;66.60;;;;;;5031780;28;20037;-78
2022/08/05 03:01:59;;;;;;;39.80;37.42;;;19.80;66.20;;;;;;5031566;28;20027;-78
2022/08/05 03:04:25;;;;;;;46.40;44.03;;;19.70;66.50;;;;;;5032298;28;20487;-78
2022/08/05 03:06:51;;;;;;;44.45;41.67;;;19.60;67.00;;;;;;5048442;28;20037;-78
2022/08/05 03:09:17;;;;;;;43.30;40.75;;;19.60;66.80;;;;;;5048673;28;20041;-78
2022/08/05 03:11:43;;;;;;;37.92;35.92;;;19.50;67.10;;;;;;5048170;28;20451;-78
2022/08/05 03:14:09;;;;;;;34.00;32.10;;;19.60;66.50;;;;;;5032243;28;20048;-79
2022/08/05 03:16:36;;;;;;;33.55;31.20;;;19.60;66.30;;;;;;5051344;28;20025;-79
2022/08/05 03:19:03;;;;;;;34.15;32.20;;;19.50;66.40;;;;;;5052281;28;20029;-78
2022/08/05 03:21:29;;;;;;;43.10;40.70;;;19.40;66.50;;;;;;5052045;28;20021;-79
2022/08/05 03:23:55;;;;;;;42.53;40.10;;;19.40;66.60;;;;;;5035480;28;20044;-78
2022/08/05 03:26:21;;;;;;;30.40;28.27;;;19.50;66.40;;;;;;5051513;28;20036;-79
2022/08/05 03:28:47;;;;;;;27.80;26.17;;;19.50;65.70;;;;;;5051971;28;20494;-79
2022/08/05 03:31:13;;;;;;;30.40;28.25;;;19.40;65.50;;;;;;5034675;28;20049;-79
2022/08/05 03:33:39;;;;;;;27.30;25.80;;;19.40;65.50;;;;;;5051955;28;20036;-79
2022/08/05 03:36:05;;;;;;;35.03;33.10;;;19.40;65.40;;;;;;5051666;28;20029;-78
2022/08/05 03:38:32;;;;;;;30.52;28.58;;;19.30;65.80;;;;;;5053116;28;20032;-79
2022/08/05 03:40:58;;;;;;;29.33;27.60;;;19.40;65.60;;;;;;5051336;28;20467;-78
2022/08/05 03:43:24;;;;;;;28.80;27.05;;;19.40;65.20;;;;;;5049065;28;20037;-78
2022/08/05 03:45:51;;;;;;;29.77;28.08;;;19.30;65.10;;;;;;5040323;28;20419;-78
2022/08/05 03:48:18;;;;;;;29.08;27.23;;;19.30;65.30;;;;;;5052614;28;20037;-79
2022/08/05 03:50:49;;;;;;;31.25;29.55;;;19.30;65.30;;;;;;5035012;28;20037;-79
2022/08/05 03:53:26;;;;;;;;;;;19.30;65.10;;;;;;5035146;28;20404;-78
2022/08/05 03:55:56;;;;;;;27.52;26.08;;;19.30;64.40;;;;;;5051561;28;19909;-79
2022/08/05 03:58:22;;;;;;;29.90;28.33;;;19.30;64.30;;;;;;5051391;28;20029;-78
2022/08/05 04:00:49;;;;;;;30.55;28.95;;;19.30;64.50;;;;;;5050720;28;20534;-78
2022/08/05 04:03:15;;;;;;;27.40;25.60;;;19.30;64.50;;;;;;5034719;28;20486;-78
2022/08/05 04:05:41;;;;;;;28.65;27.05;;;19.40;64.10;;;;;;5051196;28;20032;-79
2022/08/05 04:08:08;;;;;;;28.48;26.80;;;19.50;64.00;;;;;;5034021;28;20052;-79
2022/08/05 04:10:35;;;;;;;27.45;25.75;;;19.50;62.50;;;;;;5034864;28;20163;-78
2022/08/05 04:13:01;;;;;;;27.88;26.38;;;19.30;62.20;;;;;;5050908;28;20029;-78
2022/08/05 04:15:27;;;;;;;26.60;25.20;;;19.30;62.30;;;;;;5033739;28;20021;-78
2022/08/05 04:17:53;;;;;;;25.15;23.83;;;19.20;62.20;;;;;;5051209;28;20025;-78
2022/08/05 04:20:20;;;;;;;25.05;23.65;;;19.20;62.20;;;;;;5034193;28;20041;-78
2022/08/05 04:22:46;;;;;;;25.50;24.10;;;19.20;62.00;;;;;;5050329;28;20028;-78
2022/08/05 04:25:13;;;;;;;22.60;21.25;;;19.30;61.90;;;;;;5048835;28;20135;-78
2022/08/05 04:27:39;;;;;;;22.17;20.95;;;19.30;61.00;;;;;;5033527;28;20052;-78
2022/08/05 04:30:06;;;;;;;24.05;22.52;;;19.30;61.30;;;;;;5050222;28;20365;-79
2022/08/05 04:32:32;;;;;;;22.95;21.45;;;19.20;61.60;;;;;;5050622;28;20029;-79
2022/08/05 04:34:58;;;;;;;21.90;20.60;;;19.20;61.40;;;;;;5050572;28;20403;-78
2022/08/05 04:37:24;;;;;;;23.42;22.13;;;19.10;61.30;;;;;;5050529;28;20040;-78
2022/08/05 04:39:50;;;;;;;21.13;19.73;;;19.10;60.90;;;;;;5033638;28;20040;-79
2022/08/05 04:42:16;;;;;;;19.25;18.05;;;19.10;61.00;;;;;;5033933;28;20037;-78
2022/08/05 04:44:42;;;;;;;19.33;17.98;;;19.00;61.80;;;;;;5036858;28;20037;-78
2022/08/05 04:47:08;;;;;;;19.63;18.33;;;18.90;61.10;;;;;;4997387;28;20053;-78
2022/08/05 04:49:35;;;;;;;20.50;19.02;;;19.00;60.80;;;;;;5030424;28;20029;-79
2022/08/05 04:52:01;;;;;;;21.88;20.67;;;19.10;60.60;;;;;;5030170;28;20026;-78
2022/08/05 04:54:27;;;;;;;23.58;22.08;;;19.20;60.30;;;;;;5030107;28;20404;-78
2022/08/05 04:56:53;;;;;;;23.98;22.67;;;19.10;59.80;;;;;;5013795;28;20040;-78
2022/08/05 04:59:21;;;;;;;18.40;17.25;;;19.20;59.80;;;;;;5030268;28;20026;-79
2022/08/05 05:01:51;;;;;;;17.73;16.52;;;19.10;59.40;;;;;;5029303;28;20037;-78
2022/08/05 05:04:17;;;;;;;18.20;17.00;;;19.10;59.50;;;;;;5030208;28;20029;-78
2022/08/05 05:06:43;;;;;;;16.48;15.40;;;19.10;59.20;;;;;;5029901;28;20033;-78
2022/08/05 05:09:10;;;;;;;19.55;18.38;;;19.20;58.80;;;;;;5030179;28;20041;-78
2022/08/05 05:11:36;;;;;;;22.17;20.88;;;19.10;58.40;;;;;;5030032;28;20037;-79
2022/08/05 05:14:02;;;;;;;18.60;17.60;;;19.00;58.70;;;;;;5030167;28;20373;-78
2022/08/05 05:16:29;;;;;;;17.77;16.67;;;18.90;58.50;;;;;;5028940;28;20033;-78
2022/08/05 05:18:55;;;;;;;18.33;17.10;;;18.90;58.40;;;;;;5029947;28;20410;-78
2022/08/05 05:21:21;;;;;;;17.58;16.67;;;18.90;58.40;;;;;;5029634;28;20029;-78
2022/08/05 05:23:47;;;;;;;16.75;15.75;;;18.90;58.30;;;;;;5012775;28;20412;-78
2022/08/05 05:26:13;;;;;;;18.88;17.58;;;18.90;58.30;;;;;;5029727;28;20041;-79
2022/08/05 05:28:39;;;;;;;16.02;15.02;;;19.00;58.30;;;;;;5029895;28;20037;-78
2022/08/05 05:31:05;;;;;;;16.25;15.25;;;19.00;57.80;;;;;;5030508;28;20033;-78
2022/08/05 05:33:31;;;;;;;19.35;17.95;;;19.00;58.10;;;;;;5031046;28;20056;-78
2022/08/05 05:35:57;;;;;;;16.63;15.68;;;19.00;57.50;;;;;;5045491;28;20025;-78
2022/08/05 05:38:23;;;;;;;16.20;15.25;;;18.90;57.70;;;;;;5046567;28;20028;-78
2022/08/05 05:40:49;;;;;;;16.23;15.23;;;19.00;57.80;;;;;;5030629;28;20029;-78
2022/08/05 05:43:16;;;;;;;16.33;15.32;;;19.10;57.60;;;;;;5031029;28;20063;-78
2022/08/05 05:45:42;;;;;;;15.70;14.75;;;19.10;57.50;;;;;;5049955;28;20056;-78
2022/08/05 05:48:08;;;;;;;14.70;13.93;;;19.10;57.30;;;;;;5032952;28;20049;-78
2022/08/05 05:50:35;;;;;;;14.50;13.43;;;19.00;57.40;;;;;;5050366;28;20029;-78
2022/08/05 05:53:01;;;;;;;17.20;16.15;;;18.90;57.50;;;;;;5032865;28;20032;-79
2022/08/05 05:55:27;;;;;;;16.60;15.27;;;18.80;57.00;;;;;;5049308;28;20033;-78
2022/08/05 05:57:53;;;;;;;16.38;15.38;;;18.90;57.30;;;;;;5049345;28;20029;-78
2022/08/05 06:00:20;;;;;;;14.45;13.57;;;19.00;56.90;;;;;;5050067;28;20033;-78
2022/08/05 06:02:46;;;;;;;15.40;14.40;;;19.20;56.00;;;;;;5032793;28;20025;-78
2022/08/05 06:05:13;;;;;;;16.90;15.90;;;19.20;55.50;;;;;;5016287;28;20048;-78
2022/08/05 06:07:40;;;;;;;19.35;17.70;;;19.30;55.40;;;;;;5032363;28;20044;-79
2022/08/05 06:10:07;;;;;;;17.40;16.40;;;19.40;54.70;;;;;;5016240;28;20037;-78
2022/08/05 06:12:34;;;;;;;18.00;16.90;;;19.50;54.90;;;;;;5032297;28;20052;-78
2022/08/05 06:15:00;;;;;;;20.13;19.02;;;19.70;54.40;;;;;;5032765;28;20045;-79
2022/08/05 06:17:26;;;;;;;15.07;14.10;;;19.90;54.00;;;;;;5031979;28;20029;-78
2022/08/05 06:19:53;;;;;;;15.52;14.73;;;19.90;53.40;;;;;;5032256;28;20037;-78
2022/08/05 06:22:29;;;;;;;15.30;14.40;;;20.00;53.20;;;;;;5050692;28;20033;-78
2022/08/05 06:24:55;;;;;;;15.23;14.13;;;20.10;52.50;;;;;;5033495;28;20029;-79
2022/08/05 06:27:21;;;;;;;14.77;13.88;;;20.20;52.30;;;;;;5032546;28;20486;-79
2022/08/05 06:29:47;;;;;;;15.57;14.68;;;20.30;51.90;;;;;;5032313;28;20045;-78
2022/08/05 06:32:13;;;;;;;14.68;13.77;;;20.40;51.10;;;;;;5029646;28;20029;-79
2022/08/05 06:34:39;;;;;;;13.65;12.90;;;20.40;51.10;;;;;;5015313;28;20037;-78
2022/08/05 06:37:06;;;;;;;14.38;13.48;;;20.40;51.00;;;;;;5048900;28;20488;-79
2022/08/05 06:39:32;;;;;;;14.05;13.25;;;20.40;51.10;;;;;;5020672;28;20328;-79
2022/08/05 06:42:00;;;;;;;14.07;13.18;;;20.40;50.80;;;;;;5012357;28;20396;-79
2022/08/05 06:44:27;;;;;;;13.98;13.10;;;20.40;51.10;;;;;;5023797;28;20029;-79
2022/08/05 06:46:53;;;;;;;14.00;13.20;;;20.40;51.10;;;;;;5031665;28;20048;-79
2022/08/05 06:49:19;;;;;;;14.88;13.88;;;20.50;50.80;;;;;;5049466;28;20047;-79
2022/08/05 06:51:45;;;;;;;13.25;12.43;;;20.60;50.60;;;;;;5036116;28;20048;-79
2022/08/05 06:54:12;;;;;;;14.32;13.52;;;20.60;50.90;;;;;;5052579;28;20033;-79
2022/08/05 06:56:38;;;;;;;14.40;13.50;;;20.90;50.40;;;;;;5053769;28;20468;-79
2022/08/05 06:59:04;;;;;;;15.57;14.38;;;21.10;49.50;;;;;;5052657;28;20041;-79
2022/08/05 07:01:30;;;;;;;14.50;13.60;;;21.20;49.40;;;;;;5051842;28;20040;-79
2022/08/05 07:03:56;;;;;;;15.63;14.73;;;21.30;49.30;;;;;;5052178;28;20487;-79
2022/08/05 07:06:22;;;;;;;15.70;14.57;;;21.50;48.70;;;;;;5052413;28;20356;-79
2022/08/05 07:08:49;;;;;;;15.30;14.32;;;21.40;48.70;;;;;;5052443;28;20033;-79
2022/08/05 07:11:15;;;;;;;15.00;14.10;;;21.50;48.70;;;;;;5052413;28;20025;-79
2022/08/05 07:19:12;;;;;;;14.98;13.85;;;21.70;48.10;;;;;;5059076;28;20063;-79
2022/08/05 07:21:38;;;;;;;14.85;14.05;;;21.40;48.70;;;;;;5035230;28;20041;-79
2022/08/05 07:24:04;;;;;;;14.75;13.90;;;21.40;49.00;;;;;;5051834;28;20025;-79
2022/08/05 07:26:30;;;;;;;15.55;14.65;;;21.60;48.80;;;;;;5034973;28;20479;-79
2022/08/05 07:28:56;;;;;;;16.10;14.95;;;21.70;48.70;;;;;;5035055;28;20060;-79
2022/08/05 07:31:23;;;;;;;15.88;14.68;;;21.80;49.00;;;;;;5034474;28;20490;-79
2022/08/05 07:33:49;;;;;;;15.88;14.93;;;21.90;48.40;;;;;;5035178;28;20060;-79
2022/08/05 07:36:15;;;;;;;15.68;14.77;;;22.00;48.00;;;;;;5051676;28;20044;-79
2022/08/05 07:38:41;;;;;;;16.02;15.18;;;22.10;48.30;;;;;;5034943;28;20498;-79
2022/08/05 07:41:08;;;;;;;15.93;14.93;;;22.00;47.30;;;;;;5053003;28;20033;-79
2022/08/05 07:43:35;;;;;;;19.15;17.92;;;22.00;47.70;;;;;;5048387;28;20464;-77
2022/08/05 07:46:01;;;;;;;17.38;16.23;;;22.30;47.50;;;;;;5042574;28;20064;-79
2022/08/05 07:48:27;;;;;;;18.05;16.90;;;22.30;47.00;;;;;;5034853;28;20064;-79
2022/08/05 07:50:53;;;;;;;17.67;16.55;;;22.40;47.00;;;;;;5051499;28;20032;-79
2022/08/05 07:53:19;;;;;;;17.70;16.60;;;22.50;46.60;;;;;;5051513;28;20025;-79
2022/08/05 07:55:45;;;;;;;16.58;15.68;;;22.50;46.30;;;;;;5051398;28;20029;-79
2022/08/05 07:58:11;;;;;;;16.52;15.63;;;22.50;46.30;;;;;;5051241;28;20483;-79
2022/08/05 08:00:37;;;;;;;16.85;15.85;;;22.50;46.20;;;;;;5049556;28;20037;-79
2022/08/05 08:03:09;;;;;;;17.70;16.80;;;22.50;46.40;;;;;;5034501;28;20403;-79
2022/08/05 08:05:35;;;;;;;18.63;17.48;;;22.50;46.00;;;;;;5034601;28;20040;-79
2022/08/05 08:08:01;;;;;;;17.65;16.70;;;22.70;45.80;;;;;;5034604;28;20487;-79
2022/08/05 08:10:28;;;;;;;18.50;17.50;;;22.80;45.40;;;;;;5051148;28;20037;-79
2022/08/05 08:12:54;;;;;;;19.70;18.45;;;23.10;45.30;;;;;;5034217;28;20060;-79
2022/08/05 08:15:20;;;;;;;18.67;17.63;;;23.30;44.90;;;;;;5033599;28;20101;-79
2022/08/05 08:17:46;;;;;;;19.15;18.15;;;23.30;44.40;;;;;;5034376;28;20033;-79
2022/08/05 08:20:12;;;;;;;18.48;17.58;;;23.40;44.40;;;;;;5034404;28;20495;-79
2022/08/05 08:22:38;;;;;;;19.95;18.83;;;23.60;43.90;;;;;;5050932;28;20032;-79
2022/08/05 08:25:05;;;;;;;19.38;18.27;;;23.70;43.60;;;;;;5034578;28;20044;-79
2022/08/05 08:27:31;;;;;;;18.42;17.40;;;23.90;43.40;;;;;;5050915;28;20033;-79
2022/08/05 08:29:57;;;;;;;20.00;18.55;;;24.10;42.80;;;;;;5033572;28;20052;-79
2022/08/05 08:32:23;;;;;;;19.73;18.30;;;24.10;43.10;;;;;;5050361;28;20419;-79
2022/08/05 08:34:50;;;;;;;22.10;20.75;;;24.20;42.30;;;;;;5050659;28;20044;-79
2022/08/05 08:37:16;;;;;;;20.27;19.20;;;24.10;42.30;;;;;;5050756;28;20021;-79
2022/08/05 08:39:42;;;;;;;21.73;20.52;;;24.20;42.40;;;;;;5037475;28;20037;-79
2022/08/05 08:42:09;;;;;;;18.92;17.90;;;24.20;42.20;;;;;;5014272;28;20030;-79
2022/08/05 08:44:35;;;;;;;20.05;18.77;;;24.00;41.50;;;;;;5043548;28;20392;-79
2022/08/05 08:47:05;;;;;;;18.60;17.60;;;24.00;41.90;;;;;;5033311;28;20408;-79
2022/08/05 08:49:33;;;;;;;18.73;17.60;;;24.10;41.60;;;;;;5033918;28;20387;-79
2022/08/05 08:52:13;;;;;;;18.73;17.63;;;24.20;41.70;;;;;;5017881;28;20040;-79
2022/08/05 08:54:39;;;;;;;19.55;18.27;;;24.30;41.40;;;;;;5050433;28;20028;-79
2022/08/05 08:57:06;;;;;;;18.98;17.88;;;24.40;41.60;;;;;;5033759;28;20040;-79
2022/08/05 08:59:33;;;;;;;20.08;19.08;;;24.50;41.10;;;;;;5016892;28;20380;-79
2022/08/05 09:02:00;;;;;;;21.58;20.30;;;24.50;40.40;;;;;;5033447;28;20041;-79
2022/08/05 09:04:27;;;;;;;19.33;18.13;;;24.50;40.20;;;;;;5033667;28;20383;-79
2022/08/05 09:06:53;;;;;;;19.67;18.52;;;24.40;41.10;;;;;;5050155;28;20033;-79
2022/08/05 09:09:19;;;;;;;20.38;19.38;;;24.40;40.70;;;;;;5033294;28;20060;-79
2022/08/05 09:11:45;;;;;;;19.20;18.15;;;24.50;40.70;;;;;;5049898;28;20029;-79
2022/08/05 09:14:11;;;;;;;20.50;19.42;;;24.60;40.50;;;;;;5032393;28;20123;-79
2022/08/05 09:16:38;;;;;;;19.58;18.42;;;24.80;40.00;;;;;;5016610;28;20029;-79
2022/08/05 09:19:06;;;;;;;19.70;18.38;;;24.80;40.50;;;;;;5016817;28;20373;-79
2022/08/05 09:21:32;;;;;;;19.67;18.67;;;24.90;40.50;;;;;;5033638;28;20502;-79
2022/08/05 09:24:09;;;;;;;19.13;17.92;;;24.90;40.20;;;;;;5033367;28;20487;-79
2022/08/05 09:26:35;;;;;;;22.10;21.00;;;25.00;40.30;;;;;;5033802;28;20029;-79
2022/08/05 09:29:05;;;;;;;21.17;20.00;;;25.10;38.90;;;;;;5032896;28;20036;-79
2022/08/05 09:31:31;;;;;;;21.73;20.60;;;25.20;38.70;;;;;;5016746;28;20029;-79
2022/08/05 09:34:02;;;;;;;19.65;18.65;;;25.00;39.20;;;;;;5033238;28;20033;-79
2022/08/05 09:36:48;;;;;;;20.23;19.15;;;25.20;39.20;;;;;;5013824;28;20488;-80
2022/08/05 09:39:16;;;;;;;20.40;19.35;;;25.50;39.20;;;;;;5039005;28;20037;-79
2022/08/05 09:41:55;;;;;;;19.88;18.67;;;25.50;38.90;;;;;;5049182;28;20083;-79
2022/08/05 09:44:35;;;;;;;22.65;20.98;;;25.70;38.90;;;;;;5038897;28;20025;-79
2022/08/05 09:47:21;;;;;;;22.77;21.48;;;25.80;38.10;;;;;;5027424;28;20050;-79
2022/08/05 09:49:54;;;;;;;20.38;19.25;;;25.80;36.60;;;;;;5046087;28;20033;-79
2022/08/05 09:52:26;;;;;;;25.05;23.85;;;26.00;36.80;;;;;;5029399;28;20037;-79
2022/08/05 09:54:57;;;;;;;20.35;19.35;;;26.00;36.10;;;;;;5031040;28;20033;-80
2022/08/05 09:57:30;;;;;;;20.27;19.15;;;25.80;36.00;;;;;;5028801;28;20038;-79
2022/08/05 09:59:58;;;;;;;19.98;18.90;;;25.70;36.80;;;;;;5045689;28;20056;-79
2022/08/05 10:02:53;;;;;;;22.25;21.05;;;25.90;36.80;;;;;;5045374;28;20034;-79
2022/08/05 10:05:23;;;;;;;21.58;19.98;;;26.20;35.10;;;;;;5012640;28;20037;-79
2022/08/05 10:07:59;;;;;;;22.10;20.90;;;26.20;34.50;;;;;;5046207;28;20029;-79
2022/08/05 10:10:36;;;;;;;21.10;20.00;;;26.20;35.10;;;;;;5028573;28;20080;-79
2022/08/05 10:13:03;;;;;;;21.70;20.60;;;26.30;35.20;;;;;;5045909;28;20025;-80
2022/08/05 10:15:30;;;;;;;23.33;22.00;;;26.50;35.30;;;;;;5045226;28;20532;-79
2022/08/05 10:18:10;;;;;;;22.95;21.75;;;26.50;35.80;;;;;;5029270;28;20507;-79
2022/08/05 10:20:43;;;;;;;22.38;21.10;;;26.60;34.60;;;;;;5045520;28;20026;-79
2022/08/05 10:23:10;;;;;;;22.88;21.77;;;26.70;34.70;;;;;;5030446;28;20507;-79
2022/08/05 10:25:37;;;;;;;22.23;21.13;;;26.90;34.50;;;;;;5048807;28;20460;-80
2022/08/05 10:28:04;;;;;;;21.77;20.58;;;27.00;34.30;;;;;;5033076;28;20037;-79
2022/08/05 10:30:30;;;;;;;23.70;22.40;;;26.90;34.90;;;;;;5032261;28;20037;-79
2022/08/05 10:32:58;;;;;;;30.30;28.80;;;27.00;34.10;;;;;;5032956;28;20052;-80
2022/08/05 10:35:24;;;;;;;23.20;22.02;;;27.00;33.90;;;;;;5044814;28;20029;-79
2022/08/05 10:37:51;;;;;;;23.02;21.92;;;26.90;34.00;;;;;;5036302;28;20048;-80
2022/08/05 10:40:27;;;;;;;24.88;23.48;;;26.90;34.30;;;;;;5018050;28;20068;-80
2022/08/05 10:42:57;;;;;;;24.52;23.02;;;27.10;34.30;;;;;;5033006;28;20033;-80
2022/08/05 10:45:27;;;;;;;24.30;23.00;;;27.10;34.20;;;;;;5014216;28;20041;-80
2022/08/05 10:47:53;;;;;;;23.57;22.37;;;27.20;33.70;;;;;;5032763;28;20033;-80
2022/08/05 10:50:19;;;;;;;23.63;22.23;;;27.20;34.10;;;;;;5016232;28;20490;-80
2022/08/05 10:52:52;;;;;;;24.13;22.92;;;27.20;33.80;;;;;;5032841;28;20026;-79
2022/08/05 10:55:18;;;;;;;24.10;22.80;;;27.30;33.40;;;;;;5033772;28;20476;-80
2022/08/05 10:57:45;;;;;;;27.80;26.40;;;27.40;33.10;;;;;;5000332;28;20049;-79
2022/08/05 11:00:18;;;;;;;24.60;23.38;;;27.40;33.00;;;;;;5015854;28;20037;-80
2022/08/05 11:03:03;;;;;;;25.75;24.33;;;27.30;33.40;;;;;;5015636;28;20052;-80
2022/08/05 11:05:29;;;;;;;25.02;23.67;;;27.50;33.20;;;;;;5032765;28;20038;-79
2022/08/05 11:07:59;;;;;;;25.67;24.23;;;27.60;32.90;;;;;;5016464;28;20042;-79
2022/08/05 11:10:26;;;;;;;26.52;25.00;;;27.40;33.20;;;;;;5015794;28;20060;-80
2022/08/05 11:12:52;;;;;;;26.58;25.17;;;27.50;33.20;;;;;;5015989;28;20064;-79
2022/08/05 11:15:27;;;;;;;26.30;24.90;;;27.60;33.10;;;;;;5015633;28;20045;-79
2022/08/05 11:17:54;;;;;;;32.10;30.52;;;27.50;32.00;;;;;;5016490;28;20401;-79
2022/08/05 11:20:50;;;;;;;26.92;25.33;;;27.50;32.10;;;;;;5015701;28;20040;-79
2022/08/05 11:23:26;;;;;;;25.00;23.80;;;27.50;32.80;;;;;;5023087;28;20038;-79
2022/08/05 11:26:18;;;;;;;26.23;24.92;;;27.30;32.50;;;;;;5032203;28;20029;-80
2022/08/05 11:28:49;;;;;;;26.88;25.42;;;27.30;33.00;;;;;;5016795;28;20038;-79
2022/08/05 11:31:15;;;;;;;;;;;27.60;32.80;;;;;;5015772;28;20048;-79
2022/08/05 11:33:53;;;;;;;26.20;24.70;;;27.70;32.70;;;;;;5033210;28;20363;-80
2022/08/05 11:36:49;;;;;;;26.98;25.67;;;27.70;32.70;;;;;;5049694;28;20041;-79
2022/08/05 11:39:36;;;;;;;28.63;27.02;;;27.90;31.80;;;;;;5042119;28;20388;-79
2022/08/05 11:42:02;;;;;;;26.95;25.55;;;27.90;32.30;;;;;;5017802;28;20033;-80
2022/08/05 11:44:35;;;;;;;28.35;26.95;;;27.90;32.40;;;;;;5006966;28;20495;-79
2022/08/05 11:47:01;;;;;;;31.63;30.02;;;27.90;32.10;;;;;;5032673;28;20053;-79
2022/08/05 11:49:27;;;;;;;29.77;28.27;;;28.00;31.60;;;;;;5051503;28;20351;-79
2022/08/05 11:51:53;;;;;;;31.98;30.48;;;28.10;31.40;;;;;;5034820;28;20502;-79
2022/08/05 11:54:26;;;;;;;31.27;29.77;;;28.10;30.70;;;;;;5051148;28;20033;-79
2022/08/05 11:56:54;;;;;;;30.40;28.80;;;27.80;31.10;;;;;;5035464;28;20159;-79
2022/08/05 11:59:25;;;;;;;33.13;31.50;;;27.80;31.60;;;;;;5051562;28;20025;-79
2022/08/05 12:02:04;;;;;;;33.65;31.90;;;28.10;31.20;;;;;;5034036;28;20044;-79
2022/08/05 12:04:49;;;;;;;28.70;27.10;;;28.10;31.30;;;;;;5051300;28;20025;-79
2022/08/05 12:07:16;;;;;;;34.17;32.47;;;28.00;31.80;;;;;;5034266;28;20037;-79
2022/08/05 12:09:52;;;;;;;29.02;27.48;;;28.00;31.80;;;;;;5034699;28;20045;-79
2022/08/05 12:12:22;;;;;;;41.58;39.22;;;27.90;31.30;;;;;;5035922;28;20045;-79
2022/08/05 12:14:49;;;;;;;28.25;26.88;;;27.80;31.10;;;;;;5051041;28;20036;-79
2022/08/05 12:17:15;;;;;;;29.27;27.63;;;27.70;31.60;;;;;;5050742;28;20055;-79
2022/08/05 12:19:48;;;;;;;30.20;28.70;;;27.90;32.20;;;;;;5050983;28;20364;-79
2022/08/05 12:22:15;;;;;;;28.92;27.15;;;28.00;32.40;;;;;;5051915;28;20029;-79
2022/08/05 12:24:46;;;;;;;28.80;27.10;;;28.10;32.00;;;;;;5034262;28;20037;-79
2022/08/05 12:27:22;;;;;;;;;;;28.20;32.20;;;;;;5034561;28;20041;-79
2022/08/05 12:30:05;;;;;;;28.00;26.50;;;28.30;31.90;;;;;;5034326;28;19913;-79
2022/08/05 12:32:33;;;;;;;40.95;38.75;;;28.30;31.70;;;;;;5033628;28;20041;-79
2022/08/05 12:35:04;;;;;;;31.27;29.67;;;28.50;32.10;;;;;;5050543;28;20033;-79
2022/08/05 12:37:30;;;;;;;30.75;29.15;;;28.50;31.70;;;;;;5033299;28;20376;-79
2022/08/05 12:39:56;;;;;;;30.13;28.25;;;28.50;32.10;;;;;;5050525;28;20032;-79
2022/08/05 12:42:22;;;;;;;33.67;31.85;;;28.50;32.80;;;;;;5051845;28;20080;-79